sensor_id;sensor_type;location;lat;lon;timestamp;temperature;humidity
8436;DHT22;4255;48.730;9.156;2023-05-16T00:00:13;13.60;99.90
8436;DHT22;4255;48.730;9.156;2023-05-16T00:02:39;13.70;99.90
8436;DHT22;4255;48.730;9.156;2023-05-16T00:05:06;13.70;99.90
8436;DHT22;4255;48.730;9.156;2023-05-16T00:07:44;13.70;99.90
8436;DHT22;4255;48.730;9.156;2023-05-16T00:10:11;13.60;99.90
8436;DHT22;4255;48.730;9.156;2023-05-16T00:12:37;13.70;99.90
8436;DHT22;4255;48.730;9.156;2023-05-16T00:15:05;13.70;99.90
8436;DHT22;4255;48.730;9.156;2023-05-16T00:17:31;13.70;99.90
8436;DHT22;4255;48.730;9.156;2023-05-16T00:19:56;13.60;99.90
8436;DHT22;4255;48.730;9.156;2023-05-16T00:22:25;13.60;99.90
8436;DHT22;4255;48.730;9.156;2023-05-16T00:24:50;13.50;99.90
8436;DHT22;4255;48.730;9.156;2023-05-16T00:27:16;13.30;99.90
8436;DHT22;4255;48.730;9.156;2023-05-16T00:29:41;13.30;99.90
8436;DHT22;4255;48.730;9.156;2023-05-16T00:32:07;13.30;99.90
8436;DHT22;4255;48.730;9.156;2023-05-16T00:34:34;13.30;99.90
8436;DHT22;4255;48.730;9.156;2023-05-16T00:37:00;13.30;99.90
8436;DHT22;4255;48.730;9.156;2023-05-16T00:39:25;13.20;99.90
8436;DHT22;4255;48.730;9.156;2023-05-16T00:41:51;13.00;99.90
8436;DHT22;4255;48.730;9.156;2023-05-16T00:44:17;13.00;99.90
8436;DHT22;4255;48.730;9.156;2023-05-16T00:46:43;13.10;99.90
8436;DHT22;4255;48.730;9.156;2023-05-16T00:49:09;13.00;99.90
8436;DHT22;4255;48.730;9.156;2023-05-16T00:51:36;13.10;99.90
8436;DHT22;4255;48.730;9.156;2023-05-16T00:54:03;13.20;99.90
8436;DHT22;4255;48.730;9.156;2023-05-16T00:56:29;13.30;99.90
8436;DHT22;4255;48.730;9.156;2023-05-16T00:58:55;13.30;99.90
8436;DHT22;4255;48.730;9.156;2023-05-16T01:01:22;13.20;99.90
8436;DHT22;4255;48.730;9.156;2023-05-16T01:03:49;13.30;99.90
8436;DHT22;4255;48.730;9.156;2023-05-16T01:06:15;13.20;99.90
8436;DHT22;4255;48.730;9.156;2023-05-16T01:08:40;13.10;99.90
8436;DHT22;4255;48.730;9.156;2023-05-16T01:11:30;13.10;99.90
8436;DHT22;4255;48.730;9.156;2023-05-16T01:16:53;13.10;99.90
8436;DHT22;4255;48.730;9.156;2023-05-16T01:22:15;13.10;99.90
8436;DHT22;4255;48.730;9.156;2023-05-16T01:25:04;13.00;99.90
8436;DHT22;4255;48.730;9.156;2023-05-16T01:27:32;12.90;99.90
8436;DHT22;4255;48.730;9.156;2023-05-16T01:29:59;12.80;99.90
8436;DHT22;4255;48.730;9.156;2023-05-16T01:32:25;12.70;99.90
8436;DHT22;4255;48.730;9.156;2023-05-16T01:34:51;12.60;99.90
8436;DHT22;4255;48.730;9.156;2023-05-16T01:37:23;12.70;99.90
8436;DHT22;4255;48.730;9.156;2023-05-16T01:39:56;12.40;99.90
8436;DHT22;4255;48.730;9.156;2023-05-16T01:42:28;12.30;99.90
8436;DHT22;4255;48.730;9.156;2023-05-16T01:47:40;12.40;99.90
8436;DHT22;4255;48.730;9.156;2023-05-16T01:50:16;12.20;99.90
8436;DHT22;4255;48.730;9.156;2023-05-16T01:52:51;12.30;99.90
8436;DHT22;4255;48.730;9.156;2023-05-16T01:55:28;12.20;99.90
8436;DHT22;4255;48.730;9.156;2023-05-16T01:57:57;12.30;99.90
8436;DHT22;4255;48.730;9.156;2023-05-16T02:00:23;12.20;99.90
8436;DHT22;4255;48.730;9.156;2023-05-16T02:02:49;12.10;99.90
8436;DHT22;4255;48.730;9.156;2023-05-16T02:05:14;12.10;99.90
8436;DHT22;4255;48.730;9.156;2023-05-16T02:07:40;12.10;99.90
8436;DHT22;4255;48.730;9.156;2023-05-16T02:10:06;11.90;99.90
8436;DHT22;4255;48.730;9.156;2023-05-16T02:12:32;11.90;99.90
8436;DHT22;4255;48.730;9.156;2023-05-16T02:14:57;11.80;99.90
8436;DHT22;4255;48.730;9.156;2023-05-16T02:17:23;11.70;99.90
8436;DHT22;4255;48.730;9.156;2023-05-16T02:19:49;11.80;99.90
8436;DHT22;4255;48.730;9.156;2023-05-16T02:22:14;11.80;99.90
8436;DHT22;4255;48.730;9.156;2023-05-16T02:24:40;11.80;99.90
8436;DHT22;4255;48.730;9.156;2023-05-16T02:27:05;11.80;99.90
8436;DHT22;4255;48.730;9.156;2023-05-16T02:29:31;11.60;99.90
8436;DHT22;4255;48.730;9.156;2023-05-16T02:31:57;11.60;99.90
8436;DHT22;4255;48.730;9.156;2023-05-16T02:34:22;11.50;99.90
8436;DHT22;4255;48.730;9.156;2023-05-16T02:36:48;11.50;99.90
8436;DHT22;4255;48.730;9.156;2023-05-16T02:39:14;11.50;99.90
8436;DHT22;4255;48.730;9.156;2023-05-16T02:41:39;11.60;99.90
8436;DHT22;4255;48.730;9.156;2023-05-16T02:44:06;11.70;99.90
8436;DHT22;4255;48.730;9.156;2023-05-16T02:46:34;11.80;99.90
8436;DHT22;4255;48.730;9.156;2023-05-16T02:49:00;11.80;99.90
8436;DHT22;4255;48.730;9.156;2023-05-16T02:51:27;11.60;99.90
8436;DHT22;4255;48.730;9.156;2023-05-16T02:53:53;11.70;99.90
8436;DHT22;4255;48.730;9.156;2023-05-16T02:56:21;11.80;99.90
8436;DHT22;4255;48.730;9.156;2023-05-16T02:58:48;11.80;99.90
8436;DHT22;4255;48.730;9.156;2023-05-16T03:01:14;11.70;99.90
8436;DHT22;4255;48.730;9.156;2023-05-16T03:03:41;11.80;99.90
8436;DHT22;4255;48.730;9.156;2023-05-16T03:06:06;11.90;99.90
8436;DHT22;4255;48.730;9.156;2023-05-16T03:08:32;11.80;99.90
8436;DHT22;4255;48.730;9.156;2023-05-16T03:10:59;11.80;99.90
8436;DHT22;4255;48.730;9.156;2023-05-16T03:13:25;11.80;99.90
8436;DHT22;4255;48.730;9.156;2023-05-16T03:15:51;11.80;99.90
8436;DHT22;4255;48.730;9.156;2023-05-16T03:18:17;11.70;99.90
8436;DHT22;4255;48.730;9.156;2023-05-16T03:20:42;11.60;99.90
8436;DHT22;4255;48.730;9.156;2023-05-16T03:23:08;11.60;99.90
8436;DHT22;4255;48.730;9.156;2023-05-16T03:25:34;11.50;99.90
8436;DHT22;4255;48.730;9.156;2023-05-16T03:28:04;11.50;99.90
8436;DHT22;4255;48.730;9.156;2023-05-16T03:30:30;11.40;99.90
8436;DHT22;4255;48.730;9.156;2023-05-16T03:32:55;11.30;99.90
8436;DHT22;4255;48.730;9.156;2023-05-16T03:35:21;11.30;99.90
8436;DHT22;4255;48.730;9.156;2023-05-16T03:37:47;11.30;99.90
8436;DHT22;4255;48.730;9.156;2023-05-16T03:40:13;11.20;99.90
8436;DHT22;4255;48.730;9.156;2023-05-16T03:42:38;11.20;99.90
8436;DHT22;4255;48.730;9.156;2023-05-16T03:45:05;11.10;99.90
8436;DHT22;4255;48.730;9.156;2023-05-16T03:47:31;11.30;99.90
8436;DHT22;4255;48.730;9.156;2023-05-16T03:49:56;11.20;99.90
8436;DHT22;4255;48.730;9.156;2023-05-16T03:52:22;11.30;99.90
8436;DHT22;4255;48.730;9.156;2023-05-16T03:54:48;11.30;99.90
8436;DHT22;4255;48.730;9.156;2023-05-16T03:57:14;11.20;99.90
8436;DHT22;4255;48.730;9.156;2023-05-16T03:59:40;11.30;99.90
8436;DHT22;4255;48.730;9.156;2023-05-16T04:02:07;11.20;99.90
8436;DHT22;4255;48.730;9.156;2023-05-16T04:04:32;11.20;99.90
8436;DHT22;4255;48.730;9.156;2023-05-16T04:06:58;11.20;99.90
8436;DHT22;4255;48.730;9.156;2023-05-16T04:09:23;11.30;99.90
8436;DHT22;4255;48.730;9.156;2023-05-16T04:11:49;11.40;99.90
8436;DHT22;4255;48.730;9.156;2023-05-16T04:14:15;11.50;99.90
8436;DHT22;4255;48.730;9.156;2023-05-16T04:16:40;11.60;99.90
8436;DHT22;4255;48.730;9.156;2023-05-16T04:19:06;11.70;99.90
8436;DHT22;4255;48.730;9.156;2023-05-16T04:21:32;11.80;99.90
8436;DHT22;4255;48.730;9.156;2023-05-16T04:23:58;11.70;99.90
8436;DHT22;4255;48.730;9.156;2023-05-16T04:26:24;11.80;99.90
8436;DHT22;4255;48.730;9.156;2023-05-16T04:28:50;11.90;99.90
8436;DHT22;4255;48.730;9.156;2023-05-16T04:31:15;12.00;99.90
8436;DHT22;4255;48.730;9.156;2023-05-16T04:33:41;12.00;99.90
8436;DHT22;4255;48.730;9.156;2023-05-16T04:36:07;12.10;99.90
8436;DHT22;4255;48.730;9.156;2023-05-16T04:38:33;12.20;99.90
8436;DHT22;4255;48.730;9.156;2023-05-16T04:40:59;12.30;99.90
8436;DHT22;4255;48.730;9.156;2023-05-16T04:43:25;12.30;99.90
8436;DHT22;4255;48.730;9.156;2023-05-16T04:45:51;12.20;99.90
8436;DHT22;4255;48.730;9.156;2023-05-16T04:48:18;12.40;99.90
8436;DHT22;4255;48.730;9.156;2023-05-16T04:50:44;12.40;99.90
8436;DHT22;4255;48.730;9.156;2023-05-16T04:53:09;12.40;99.90
8436;DHT22;4255;48.730;9.156;2023-05-16T04:55:35;12.50;99.90
8436;DHT22;4255;48.730;9.156;2023-05-16T04:58:01;12.60;99.90
8436;DHT22;4255;48.730;9.156;2023-05-16T05:00:27;12.60;99.90
8436;DHT22;4255;48.730;9.156;2023-05-16T05:02:52;12.50;99.90
8436;DHT22;4255;48.730;9.156;2023-05-16T05:05:18;12.40;99.90
8436;DHT22;4255;48.730;9.156;2023-05-16T05:07:43;12.20;99.90
8436;DHT22;4255;48.730;9.156;2023-05-16T05:10:09;12.30;99.90
8436;DHT22;4255;48.730;9.156;2023-05-16T05:12:36;12.40;99.90
8436;DHT22;4255;48.730;9.156;2023-05-16T05:15:02;12.40;99.90
8436;DHT22;4255;48.730;9.156;2023-05-16T05:17:27;12.40;99.90
8436;DHT22;4255;48.730;9.156;2023-05-16T05:19:54;12.20;99.90
8436;DHT22;4255;48.730;9.156;2023-05-16T05:22:19;12.00;99.90
8436;DHT22;4255;48.730;9.156;2023-05-16T05:24:45;12.10;99.90
8436;DHT22;4255;48.730;9.156;2023-05-16T05:27:11;12.10;99.90
8436;DHT22;4255;48.730;9.156;2023-05-16T05:29:37;12.10;99.90
8436;DHT22;4255;48.730;9.156;2023-05-16T05:32:03;12.00;99.90
8436;DHT22;4255;48.730;9.156;2023-05-16T05:34:29;12.00;99.90
8436;DHT22;4255;48.730;9.156;2023-05-16T05:36:55;12.10;99.90
8436;DHT22;4255;48.730;9.156;2023-05-16T05:39:21;12.20;99.90
8436;DHT22;4255;48.730;9.156;2023-05-16T05:41:47;12.30;99.90
8436;DHT22;4255;48.730;9.156;2023-05-16T05:44:12;12.20;99.90
8436;DHT22;4255;48.730;9.156;2023-05-16T05:46:38;12.30;99.90
8436;DHT22;4255;48.730;9.156;2023-05-16T05:49:04;12.20;99.90
8436;DHT22;4255;48.730;9.156;2023-05-16T05:51:30;12.20;99.90
8436;DHT22;4255;48.730;9.156;2023-05-16T05:53:56;12.20;99.90
8436;DHT22;4255;48.730;9.156;2023-05-16T05:56:22;12.20;99.90
8436;DHT22;4255;48.730;9.156;2023-05-16T05:58:49;12.40;99.90
8436;DHT22;4255;48.730;9.156;2023-05-16T06:01:15;12.20;99.90
8436;DHT22;4255;48.730;9.156;2023-05-16T06:03:41;12.10;99.90
8436;DHT22;4255;48.730;9.156;2023-05-16T06:06:07;12.20;99.90
8436;DHT22;4255;48.730;9.156;2023-05-16T06:08:33;12.30;99.90
8436;DHT22;4255;48.730;9.156;2023-05-16T06:10:59;12.20;99.90
8436;DHT22;4255;48.730;9.156;2023-05-16T06:13:25;12.30;99.90
8436;DHT22;4255;48.730;9.156;2023-05-16T06:15:51;12.40;99.90
8436;DHT22;4255;48.730;9.156;2023-05-16T06:18:16;12.40;99.90
8436;DHT22;4255;48.730;9.156;2023-05-16T06:20:42;12.30;99.90
8436;DHT22;4255;48.730;9.156;2023-05-16T06:23:08;12.40;99.90
8436;DHT22;4255;48.730;9.156;2023-05-16T06:25:33;12.50;99.90
8436;DHT22;4255;48.730;9.156;2023-05-16T06:27:59;12.50;99.90
8436;DHT22;4255;48.730;9.156;2023-05-16T06:30:24;12.40;99.90
8436;DHT22;4255;48.730;9.156;2023-05-16T06:32:50;12.50;99.90
8436;DHT22;4255;48.730;9.156;2023-05-16T06:35:16;12.40;99.90
8436;DHT22;4255;48.730;9.156;2023-05-16T06:37:41;12.40;99.90
8436;DHT22;4255;48.730;9.156;2023-05-16T06:40:07;12.60;99.90
8436;DHT22;4255;48.730;9.156;2023-05-16T06:42:33;12.60;99.90
8436;DHT22;4255;48.730;9.156;2023-05-16T06:44:58;12.50;99.90
8436;DHT22;4255;48.730;9.156;2023-05-16T06:47:24;12.50;99.90
8436;DHT22;4255;48.730;9.156;2023-05-16T06:49:50;12.60;99.90
8436;DHT22;4255;48.730;9.156;2023-05-16T06:52:16;12.40;99.90
8436;DHT22;4255;48.730;9.156;2023-05-16T06:54:41;12.30;99.90
8436;DHT22;4255;48.730;9.156;2023-05-16T06:57:07;12.10;99.90
8436;DHT22;4255;48.730;9.156;2023-05-16T06:59:33;12.00;99.90
8436;DHT22;4255;48.730;9.156;2023-05-16T07:02:00;12.10;99.90
8436;DHT22;4255;48.730;9.156;2023-05-16T07:04:26;12.10;99.90
8436;DHT22;4255;48.730;9.156;2023-05-16T07:06:52;12.10;99.90
8436;DHT22;4255;48.730;9.156;2023-05-16T07:09:18;12.00;99.90
8436;DHT22;4255;48.730;9.156;2023-05-16T07:11:44;12.10;99.90
8436;DHT22;4255;48.730;9.156;2023-05-16T07:14:10;12.30;99.90
8436;DHT22;4255;48.730;9.156;2023-05-16T07:16:35;12.30;99.90
8436;DHT22;4255;48.730;9.156;2023-05-16T07:19:01;12.40;99.90
8436;DHT22;4255;48.730;9.156;2023-05-16T07:21:27;12.50;99.90
8436;DHT22;4255;48.730;9.156;2023-05-16T07:23:53;12.50;99.90
8436;DHT22;4255;48.730;9.156;2023-05-16T07:26:19;12.50;99.90
8436;DHT22;4255;48.730;9.156;2023-05-16T07:28:48;12.50;99.90
8436;DHT22;4255;48.730;9.156;2023-05-16T07:31:14;12.50;99.90
8436;DHT22;4255;48.730;9.156;2023-05-16T07:33:40;12.40;99.90
8436;DHT22;4255;48.730;9.156;2023-05-16T07:36:06;12.20;99.90
8436;DHT22;4255;48.730;9.156;2023-05-16T07:38:32;12.20;99.90
8436;DHT22;4255;48.730;9.156;2023-05-16T07:40:58;12.10;99.90
8436;DHT22;4255;48.730;9.156;2023-05-16T07:43:23;12.10;99.90
8436;DHT22;4255;48.730;9.156;2023-05-16T07:45:49;12.10;99.90
8436;DHT22;4255;48.730;9.156;2023-05-16T07:48:15;12.30;99.90
8436;DHT22;4255;48.730;9.156;2023-05-16T07:50:41;12.30;99.90
8436;DHT22;4255;48.730;9.156;2023-05-16T07:53:07;12.40;99.90
8436;DHT22;4255;48.730;9.156;2023-05-16T07:55:32;12.40;99.90
8436;DHT22;4255;48.730;9.156;2023-05-16T07:57:58;12.60;99.90
8436;DHT22;4255;48.730;9.156;2023-05-16T08:00:24;12.60;99.90
8436;DHT22;4255;48.730;9.156;2023-05-16T08:02:50;12.70;99.90
8436;DHT22;4255;48.730;9.156;2023-05-16T08:05:16;12.80;99.90
8436;DHT22;4255;48.730;9.156;2023-05-16T08:07:41;13.00;99.90
8436;DHT22;4255;48.730;9.156;2023-05-16T08:10:07;13.10;99.90
8436;DHT22;4255;48.730;9.156;2023-05-16T08:12:33;13.10;99.90
8436;DHT22;4255;48.730;9.156;2023-05-16T08:14:59;13.00;99.90
8436;DHT22;4255;48.730;9.156;2023-05-16T08:17:24;13.10;99.90
8436;DHT22;4255;48.730;9.156;2023-05-16T08:19:50;13.00;99.90
8436;DHT22;4255;48.730;9.156;2023-05-16T08:22:15;12.80;99.90
8436;DHT22;4255;48.730;9.156;2023-05-16T08:24:41;12.60;99.90
8436;DHT22;4255;48.730;9.156;2023-05-16T08:27:06;12.60;99.90
8436;DHT22;4255;48.730;9.156;2023-05-16T08:29:33;12.80;99.90
8436;DHT22;4255;48.730;9.156;2023-05-16T08:31:58;12.80;99.90
8436;DHT22;4255;48.730;9.156;2023-05-16T08:34:24;12.90;99.90
8436;DHT22;4255;48.730;9.156;2023-05-16T08:36:50;12.90;99.90
8436;DHT22;4255;48.730;9.156;2023-05-16T08:39:15;12.90;99.90
8436;DHT22;4255;48.730;9.156;2023-05-16T08:41:41;12.90;99.90
8436;DHT22;4255;48.730;9.156;2023-05-16T08:44:07;12.60;99.90
8436;DHT22;4255;48.730;9.156;2023-05-16T08:46:35;12.40;99.90
8436;DHT22;4255;48.730;9.156;2023-05-16T08:49:02;12.00;99.90
8436;DHT22;4255;48.730;9.156;2023-05-16T08:51:32;12.00;99.90
8436;DHT22;4255;48.730;9.156;2023-05-16T08:54:06;12.10;99.90
8436;DHT22;4255;48.730;9.156;2023-05-16T08:56:33;12.10;99.90
8436;DHT22;4255;48.730;9.156;2023-05-16T08:59:00;12.10;99.90
8436;DHT22;4255;48.730;9.156;2023-05-16T09:01:26;12.30;99.90
8436;DHT22;4255;48.730;9.156;2023-05-16T09:03:52;12.40;99.90
8436;DHT22;4255;48.730;9.156;2023-05-16T09:06:19;12.30;99.90
8436;DHT22;4255;48.730;9.156;2023-05-16T09:08:45;12.30;99.90
8436;DHT22;4255;48.730;9.156;2023-05-16T09:11:11;12.10;99.90
8436;DHT22;4255;48.730;9.156;2023-05-16T09:13:38;12.00;99.90
8436;DHT22;4255;48.730;9.156;2023-05-16T09:16:11;12.20;99.90
8436;DHT22;4255;48.730;9.156;2023-05-16T09:18:38;12.10;99.90
8436;DHT22;4255;48.730;9.156;2023-05-16T09:21:04;12.20;99.90
8436;DHT22;4255;48.730;9.156;2023-05-16T09:23:32;12.20;99.90
8436;DHT22;4255;48.730;9.156;2023-05-16T09:25:58;12.00;99.90
8436;DHT22;4255;48.730;9.156;2023-05-16T09:28:27;12.10;99.90
8436;DHT22;4255;48.730;9.156;2023-05-16T09:30:53;12.20;99.90
8436;DHT22;4255;48.730;9.156;2023-05-16T09:33:22;12.30;99.90
8436;DHT22;4255;48.730;9.156;2023-05-16T09:35:58;12.60;99.90
8436;DHT22;4255;48.730;9.156;2023-05-16T09:38:25;12.60;99.90
8436;DHT22;4255;48.730;9.156;2023-05-16T09:40:52;12.80;99.90
8436;DHT22;4255;48.730;9.156;2023-05-16T09:43:26;12.90;99.90
8436;DHT22;4255;48.730;9.156;2023-05-16T09:45:52;13.00;99.90
8436;DHT22;4255;48.730;9.156;2023-05-16T09:48:19;13.10;99.90
8436;DHT22;4255;48.730;9.156;2023-05-16T09:50:50;13.10;99.90
8436;DHT22;4255;48.730;9.156;2023-05-16T09:53:23;13.40;99.90
8436;DHT22;4255;48.730;9.156;2023-05-16T09:55:58;13.20;99.90
8436;DHT22;4255;48.730;9.156;2023-05-16T09:58:32;13.20;99.90
8436;DHT22;4255;48.730;9.156;2023-05-16T10:00:59;13.10;99.90
8436;DHT22;4255;48.730;9.156;2023-05-16T10:03:25;12.90;99.90
8436;DHT22;4255;48.730;9.156;2023-05-16T10:05:52;12.90;99.90
8436;DHT22;4255;48.730;9.156;2023-05-16T10:08:22;13.00;99.90
8436;DHT22;4255;48.730;9.156;2023-05-16T10:10:55;13.10;99.90
8436;DHT22;4255;48.730;9.156;2023-05-16T10:13:22;13.50;99.90
8436;DHT22;4255;48.730;9.156;2023-05-16T10:15:49;13.70;99.90
8436;DHT22;4255;48.730;9.156;2023-05-16T10:18:20;13.70;99.90
8436;DHT22;4255;48.730;9.156;2023-05-16T10:20:48;13.50;99.90
8436;DHT22;4255;48.730;9.156;2023-05-16T10:23:19;13.50;99.90
8436;DHT22;4255;48.730;9.156;2023-05-16T10:25:46;13.60;99.90
8436;DHT22;4255;48.730;9.156;2023-05-16T10:28:16;13.60;99.90
8436;DHT22;4255;48.730;9.156;2023-05-16T10:30:44;13.30;99.90
8436;DHT22;4255;48.730;9.156;2023-05-16T10:33:15;13.40;99.90
8436;DHT22;4255;48.730;9.156;2023-05-16T10:35:42;13.50;99.90
8436;DHT22;4255;48.730;9.156;2023-05-16T10:38:08;13.40;99.90
8436;DHT22;4255;48.730;9.156;2023-05-16T10:40:37;13.50;99.90
8436;DHT22;4255;48.730;9.156;2023-05-16T10:43:04;13.80;99.90
8436;DHT22;4255;48.730;9.156;2023-05-16T10:45:30;13.90;99.90
8436;DHT22;4255;48.730;9.156;2023-05-16T10:47:57;13.70;99.90
8436;DHT22;4255;48.730;9.156;2023-05-16T10:50:41;13.80;99.90
8436;DHT22;4255;48.730;9.156;2023-05-16T10:53:28;13.70;99.90
8436;DHT22;4255;48.730;9.156;2023-05-16T11:01:25;13.10;99.90
8436;DHT22;4255;48.730;9.156;2023-05-16T11:11:46;12.90;99.90
8436;DHT22;4255;48.730;9.156;2023-05-16T11:16:52;12.40;99.90
8436;DHT22;4255;48.730;9.156;2023-05-16T11:19:57;12.40;99.90
8436;DHT22;4255;48.730;9.156;2023-05-16T11:22:26;12.20;99.90
8436;DHT22;4255;48.730;9.156;2023-05-16T11:27:45;12.10;99.90
8436;DHT22;4255;48.730;9.156;2023-05-16T11:32:37;12.30;99.90
8436;DHT22;4255;48.730;9.156;2023-05-16T11:35:07;12.20;99.90
8436;DHT22;4255;48.730;9.156;2023-05-16T11:37:34;12.10;99.90
8436;DHT22;4255;48.730;9.156;2023-05-16T11:40:09;12.10;99.90
8436;DHT22;4255;48.730;9.156;2023-05-16T11:42:42;12.40;99.90
8436;DHT22;4255;48.730;9.156;2023-05-16T11:45:15;12.10;99.90
8436;DHT22;4255;48.730;9.156;2023-05-16T11:47:43;11.80;99.90
8436;DHT22;4255;48.730;9.156;2023-05-16T11:50:17;11.80;99.90
8436;DHT22;4255;48.730;9.156;2023-05-16T11:52:47;12.10;99.90
8436;DHT22;4255;48.730;9.156;2023-05-16T11:55:15;12.30;99.90
8436;DHT22;4255;48.730;9.156;2023-05-16T11:57:42;12.20;99.90
8436;DHT22;4255;48.730;9.156;2023-05-16T12:00:15;12.20;99.90
8436;DHT22;4255;48.730;9.156;2023-05-16T12:02:43;12.00;99.90
8436;DHT22;4255;48.730;9.156;2023-05-16T12:05:09;11.80;99.90
8436;DHT22;4255;48.730;9.156;2023-05-16T12:07:36;11.80;99.90
8436;DHT22;4255;48.730;9.156;2023-05-16T12:10:05;11.70;99.90
8436;DHT22;4255;48.730;9.156;2023-05-16T12:12:32;11.80;99.90
8436;DHT22;4255;48.730;9.156;2023-05-16T12:14:58;11.90;99.90
8436;DHT22;4255;48.730;9.156;2023-05-16T12:17:24;11.90;99.90
8436;DHT22;4255;48.730;9.156;2023-05-16T12:19:50;12.00;99.90
8436;DHT22;4255;48.730;9.156;2023-05-16T12:22:16;11.90;99.90
8436;DHT22;4255;48.730;9.156;2023-05-16T12:24:42;11.80;99.90
8436;DHT22;4255;48.730;9.156;2023-05-16T12:27:08;11.70;99.90
8436;DHT22;4255;48.730;9.156;2023-05-16T12:29:34;11.60;99.90
8436;DHT22;4255;48.730;9.156;2023-05-16T12:32:00;11.70;99.90
8436;DHT22;4255;48.730;9.156;2023-05-16T12:34:28;11.80;99.90
8436;DHT22;4255;48.730;9.156;2023-05-16T12:36:54;11.90;99.90
8436;DHT22;4255;48.730;9.156;2023-05-16T12:39:20;11.90;99.90
8436;DHT22;4255;48.730;9.156;2023-05-16T12:41:47;12.00;99.90
8436;DHT22;4255;48.730;9.156;2023-05-16T12:44:17;12.30;99.90
8436;DHT22;4255;48.730;9.156;2023-05-16T12:46:51;12.50;99.90
8436;DHT22;4255;48.730;9.156;2023-05-16T12:49:20;12.50;99.90
8436;DHT22;4255;48.730;9.156;2023-05-16T12:51:50;12.30;99.90
8436;DHT22;4255;48.730;9.156;2023-05-16T12:54:16;12.30;99.90
8436;DHT22;4255;48.730;9.156;2023-05-16T12:56:43;12.10;99.90
8436;DHT22;4255;48.730;9.156;2023-05-16T12:59:09;12.30;99.90
8436;DHT22;4255;48.730;9.156;2023-05-16T13:01:37;12.50;99.90
8436;DHT22;4255;48.730;9.156;2023-05-16T13:04:03;12.50;99.90
8436;DHT22;4255;48.730;9.156;2023-05-16T13:06:29;12.60;99.90
8436;DHT22;4255;48.730;9.156;2023-05-16T13:08:55;12.20;99.90
8436;DHT22;4255;48.730;9.156;2023-05-16T13:11:22;12.10;99.90
8436;DHT22;4255;48.730;9.156;2023-05-16T13:13:47;11.90;99.90
8436;DHT22;4255;48.730;9.156;2023-05-16T13:16:13;11.80;99.90
8436;DHT22;4255;48.730;9.156;2023-05-16T13:18:39;11.80;99.90
8436;DHT22;4255;48.730;9.156;2023-05-16T13:21:05;11.70;99.90
8436;DHT22;4255;48.730;9.156;2023-05-16T13:23:31;11.60;99.90
8436;DHT22;4255;48.730;9.156;2023-05-16T13:25:57;11.80;99.90
8436;DHT22;4255;48.730;9.156;2023-05-16T13:28:23;11.60;99.90
8436;DHT22;4255;48.730;9.156;2023-05-16T13:30:49;11.60;99.90
8436;DHT22;4255;48.730;9.156;2023-05-16T13:33:16;11.50;99.90
8436;DHT22;4255;48.730;9.156;2023-05-16T13:35:45;11.60;99.90
8436;DHT22;4255;48.730;9.156;2023-05-16T13:38:10;11.60;99.90
8436;DHT22;4255;48.730;9.156;2023-05-16T13:40:36;11.50;99.90
8436;DHT22;4255;48.730;9.156;2023-05-16T13:43:01;11.60;99.90
8436;DHT22;4255;48.730;9.156;2023-05-16T13:45:27;11.40;99.90
8436;DHT22;4255;48.730;9.156;2023-05-16T13:47:53;11.30;99.90
8436;DHT22;4255;48.730;9.156;2023-05-16T13:50:19;11.10;99.90
8436;DHT22;4255;48.730;9.156;2023-05-16T13:52:45;11.30;99.90
8436;DHT22;4255;48.730;9.156;2023-05-16T13:55:12;11.50;99.90
8436;DHT22;4255;48.730;9.156;2023-05-16T13:57:38;11.70;99.90
8436;DHT22;4255;48.730;9.156;2023-05-16T14:00:04;11.70;99.90
8436;DHT22;4255;48.730;9.156;2023-05-16T14:02:40;11.70;99.90
8436;DHT22;4255;48.730;9.156;2023-05-16T14:05:07;11.50;99.90
8436;DHT22;4255;48.730;9.156;2023-05-16T14:07:33;11.50;99.90
8436;DHT22;4255;48.730;9.156;2023-05-16T14:09:59;11.40;99.90
8436;DHT22;4255;48.730;9.156;2023-05-16T14:12:25;11.50;99.90
8436;DHT22;4255;48.730;9.156;2023-05-16T14:14:50;11.70;99.90
8436;DHT22;4255;48.730;9.156;2023-05-16T14:17:16;11.90;99.90
8436;DHT22;4255;48.730;9.156;2023-05-16T14:19:42;11.90;99.90
8436;DHT22;4255;48.730;9.156;2023-05-16T14:22:07;11.80;99.90
8436;DHT22;4255;48.730;9.156;2023-05-16T14:24:33;11.90;99.90
8436;DHT22;4255;48.730;9.156;2023-05-16T14:26:59;11.90;99.90
8436;DHT22;4255;48.730;9.156;2023-05-16T14:29:24;11.90;99.90
8436;DHT22;4255;48.730;9.156;2023-05-16T14:31:50;11.90;99.90
8436;DHT22;4255;48.730;9.156;2023-05-16T14:34:16;12.20;99.90
8436;DHT22;4255;48.730;9.156;2023-05-16T14:36:41;12.20;99.90
8436;DHT22;4255;48.730;9.156;2023-05-16T14:39:08;12.30;99.90
8436;DHT22;4255;48.730;9.156;2023-05-16T14:41:34;12.20;99.90
8436;DHT22;4255;48.730;9.156;2023-05-16T14:43:59;12.20;99.90
8436;DHT22;4255;48.730;9.156;2023-05-16T14:46:25;12.10;99.90
8436;DHT22;4255;48.730;9.156;2023-05-16T14:48:50;12.10;99.90
8436;DHT22;4255;48.730;9.156;2023-05-16T14:51:16;12.00;99.90
8436;DHT22;4255;48.730;9.156;2023-05-16T14:53:42;11.90;99.90
8436;DHT22;4255;48.730;9.156;2023-05-16T14:56:08;11.90;99.90
8436;DHT22;4255;48.730;9.156;2023-05-16T14:58:33;11.90;99.90
8436;DHT22;4255;48.730;9.156;2023-05-16T15:00:59;11.90;99.90
8436;DHT22;4255;48.730;9.156;2023-05-16T15:03:24;12.00;99.90
8436;DHT22;4255;48.730;9.156;2023-05-16T15:05:50;12.20;99.90
8436;DHT22;4255;48.730;9.156;2023-05-16T15:08:17;12.30;99.90
8436;DHT22;4255;48.730;9.156;2023-05-16T15:10:42;12.50;99.90
8436;DHT22;4255;48.730;9.156;2023-05-16T15:13:08;12.70;99.90
8436;DHT22;4255;48.730;9.156;2023-05-16T15:15:33;12.70;99.90
8436;DHT22;4255;48.730;9.156;2023-05-16T15:18:02;12.50;99.90
8436;DHT22;4255;48.730;9.156;2023-05-16T15:20:27;12.60;99.90
8436;DHT22;4255;48.730;9.156;2023-05-16T15:22:53;12.60;99.90
8436;DHT22;4255;48.730;9.156;2023-05-16T15:25:18;12.70;99.90
8436;DHT22;4255;48.730;9.156;2023-05-16T15:27:45;12.80;99.90
8436;DHT22;4255;48.730;9.156;2023-05-16T15:30:10;13.00;99.90
8436;DHT22;4255;48.730;9.156;2023-05-16T15:32:36;12.80;99.90
8436;DHT22;4255;48.730;9.156;2023-05-16T15:35:02;13.00;99.90
8436;DHT22;4255;48.730;9.156;2023-05-16T15:37:28;13.20;99.90
8436;DHT22;4255;48.730;9.156;2023-05-16T15:39:53;13.20;99.90
8436;DHT22;4255;48.730;9.156;2023-05-16T15:42:19;13.30;99.90
8436;DHT22;4255;48.730;9.156;2023-05-16T15:44:45;13.00;99.90
8436;DHT22;4255;48.730;9.156;2023-05-16T15:47:11;12.90;99.90
8436;DHT22;4255;48.730;9.156;2023-05-16T15:49:37;12.90;99.90
8436;DHT22;4255;48.730;9.156;2023-05-16T15:52:03;13.00;99.90
8436;DHT22;4255;48.730;9.156;2023-05-16T15:54:29;13.00;99.90
8436;DHT22;4255;48.730;9.156;2023-05-16T15:56:54;13.30;99.90
8436;DHT22;4255;48.730;9.156;2023-05-16T15:59:20;13.30;99.90
8436;DHT22;4255;48.730;9.156;2023-05-16T16:01:45;13.30;99.90
8436;DHT22;4255;48.730;9.156;2023-05-16T16:04:11;13.20;99.90
8436;DHT22;4255;48.730;9.156;2023-05-16T16:06:36;13.40;99.90
8436;DHT22;4255;48.730;9.156;2023-05-16T16:09:02;13.50;99.90
8436;DHT22;4255;48.730;9.156;2023-05-16T16:11:28;13.50;99.90
8436;DHT22;4255;48.730;9.156;2023-05-16T16:13:54;13.40;99.90
8436;DHT22;4255;48.730;9.156;2023-05-16T16:16:19;13.30;99.90
8436;DHT22;4255;48.730;9.156;2023-05-16T16:18:45;13.40;99.90
8436;DHT22;4255;48.730;9.156;2023-05-16T16:21:11;13.00;99.90
8436;DHT22;4255;48.730;9.156;2023-05-16T16:23:37;13.00;99.90
8436;DHT22;4255;48.730;9.156;2023-05-16T16:26:06;12.60;99.90
8436;DHT22;4255;48.730;9.156;2023-05-16T16:28:31;12.40;99.90